createdAt,value
2023-03-07T00:00:19.214Z,4.18
2023-03-07T00:02:51.396Z,4.21
2023-03-07T00:05:19.130Z,4.21
2023-03-07T00:07:46.973Z,4.20
2023-03-07T00:10:14.860Z,4.19
2023-03-07T00:12:42.803Z,4.19
2023-03-07T00:15:11.576Z,4.21
2023-03-07T00:17:39.966Z,4.20
2023-03-07T00:20:15.895Z,4.20
2023-03-07T00:22:46.442Z,4.21
2023-03-07T00:25:15.146Z,4.20
2023-03-07T00:27:42.929Z,4.18
2023-03-07T00:30:11.888Z,4.15
2023-03-07T00:32:39.546Z,4.14
2023-03-07T00:35:08.161Z,4.15
2023-03-07T00:37:35.863Z,4.13
2023-03-07T00:40:06.646Z,4.10
2023-03-07T00:42:34.195Z,4.10
2023-03-07T00:45:03.431Z,4.07
2023-03-07T00:47:31.150Z,4.02
2023-03-07T00:49:59.098Z,3.95
2023-03-07T00:52:26.527Z,3.92
2023-03-07T00:54:54.313Z,3.90
2023-03-07T00:57:21.960Z,3.90
2023-03-07T00:59:49.973Z,3.87
2023-03-07T01:02:17.426Z,3.90
2023-03-07T01:04:45.513Z,3.90
2023-03-07T01:07:13.225Z,3.88
2023-03-07T01:09:41.637Z,3.86
2023-03-07T01:12:09.693Z,3.80
2023-03-07T01:14:37.115Z,3.78
2023-03-07T01:17:04.940Z,3.75
2023-03-07T01:19:32.916Z,3.73
2023-03-07T01:22:00.731Z,3.71
2023-03-07T01:24:28.538Z,3.71
2023-03-07T01:26:56.773Z,3.70
2023-03-07T01:29:24.855Z,3.72
2023-03-07T01:31:53.114Z,3.73
2023-03-07T01:34:21.444Z,3.72
2023-03-07T01:36:51.139Z,3.76
2023-03-07T01:39:18.897Z,3.75
2023-03-07T01:41:51.352Z,3.72
2023-03-07T01:44:25.196Z,3.71
2023-03-07T01:47:00.697Z,3.71
2023-03-07T01:49:38.318Z,3.69
2023-03-07T01:52:14.949Z,3.69
2023-03-07T01:54:49.900Z,3.69
2023-03-07T01:57:23.105Z,3.70
2023-03-07T01:59:54.888Z,3.68
2023-03-07T02:02:24.078Z,3.67
2023-03-07T02:05:18.572Z,3.65
2023-03-07T02:07:49.855Z,3.62
2023-03-07T02:10:22.550Z,3.56
2023-03-07T02:12:53.302Z,3.55
2023-03-07T02:15:21.354Z,3.57
2023-03-07T02:17:49.953Z,3.57
2023-03-07T02:20:50.785Z,3.56
2023-03-07T02:23:39.126Z,3.60
2023-03-07T02:26:34.741Z,3.63
2023-03-07T02:29:03.402Z,3.70
2023-03-07T02:31:31.274Z,3.74
2023-03-07T02:33:59.490Z,3.70
2023-03-07T02:36:34.306Z,3.73
2023-03-07T02:39:06.676Z,3.75
2023-03-07T02:41:36.647Z,3.73
2023-03-07T02:44:06.828Z,3.73
2023-03-07T02:46:34.681Z,3.67
2023-03-07T02:49:02.268Z,3.63
2023-03-07T02:51:29.787Z,3.56
2023-03-07T02:53:58.128Z,3.54
2023-03-07T02:56:26.248Z,3.46
2023-03-07T02:58:54.337Z,3.40
2023-03-07T03:01:22.371Z,3.38
2023-03-07T03:03:50.400Z,3.37
2023-03-07T03:06:17.851Z,3.33
2023-03-07T03:08:45.534Z,3.27
2023-03-07T03:11:13.341Z,3.25
2023-03-07T03:13:41.509Z,3.21
2023-03-07T03:16:09.381Z,3.20
2023-03-07T03:18:38.188Z,3.23
2023-03-07T03:21:10.637Z,3.25
2023-03-07T03:23:38.575Z,3.24
2023-03-07T03:26:11.080Z,3.23
2023-03-07T03:28:40.100Z,3.20
2023-03-07T03:31:13.342Z,3.11
2023-03-07T03:33:43.496Z,3.01
2023-03-07T03:36:15.455Z,2.87
2023-03-07T03:38:43.896Z,2.82
2023-03-07T03:41:17.640Z,2.79
2023-03-07T03:43:45.950Z,2.76
2023-03-07T03:46:14.637Z,2.78
2023-03-07T03:48:43.975Z,2.81
2023-03-07T03:51:16.747Z,2.84
2023-03-07T03:53:44.476Z,2.87
2023-03-07T03:56:19.401Z,2.87
2023-03-07T03:58:51.380Z,2.86
2023-03-07T04:01:21.886Z,2.86
2023-03-07T04:03:52.353Z,2.90
2023-03-07T04:06:24.547Z,2.92
2023-03-07T04:08:53.515Z,2.97
2023-03-07T04:11:23.000Z,3.03
2023-03-07T04:13:50.942Z,3.07
2023-03-07T04:16:21.914Z,3.10
2023-03-07T04:18:50.666Z,3.14
2023-03-07T04:21:20.177Z,3.19
2023-03-07T04:23:53.536Z,3.27
2023-03-07T04:26:22.790Z,3.30
2023-03-07T04:28:50.726Z,3.31
2023-03-07T04:31:26.214Z,3.30
2023-03-07T04:33:55.788Z,3.29
2023-03-07T04:36:24.784Z,3.28
2023-03-07T04:38:52.896Z,3.27
2023-03-07T04:41:26.192Z,3.25
2023-03-07T04:43:58.990Z,3.23
2023-03-07T04:46:27.764Z,3.21
2023-03-07T04:48:55.774Z,3.18
2023-03-07T04:51:23.905Z,3.15
2023-03-07T04:53:51.802Z,3.14
2023-03-07T04:56:19.731Z,3.12
2023-03-07T04:58:48.367Z,3.10
2023-03-07T05:01:18.673Z,3.08
2023-03-07T05:03:46.809Z,3.06
2023-03-07T05:06:15.714Z,3.02
2023-03-07T05:08:45.288Z,3.01
2023-03-07T05:11:13.593Z,2.99
2023-03-07T05:13:41.395Z,2.99
2023-03-07T05:16:09.413Z,2.99
2023-03-07T05:18:37.019Z,3.00
2023-03-07T05:21:05.532Z,3.01
2023-03-07T05:23:33.451Z,3.02
2023-03-07T05:26:01.491Z,3.04
2023-03-07T05:28:29.436Z,3.08
2023-03-07T05:30:57.580Z,3.09
2023-03-07T05:33:25.375Z,3.12
2023-03-07T05:35:55.111Z,3.13
2023-03-07T05:38:23.600Z,3.18
2023-03-07T05:40:51.518Z,3.21
2023-03-07T05:43:19.363Z,3.22
2023-03-07T05:45:47.056Z,3.21
2023-03-07T05:48:14.557Z,3.21
2023-03-07T05:50:43.136Z,3.21
2023-03-07T05:53:12.119Z,3.23
2023-03-07T05:55:39.761Z,3.27
2023-03-07T05:58:08.016Z,3.30
2023-03-07T06:00:35.952Z,3.30
2023-03-07T06:03:04.973Z,3.30
2023-03-07T06:05:32.891Z,3.34
2023-03-07T06:08:00.791Z,3.38
2023-03-07T06:10:30.293Z,3.46
2023-03-07T06:12:57.957Z,3.54
2023-03-07T06:15:25.816Z,3.61
2023-03-07T06:17:55.472Z,3.64
2023-03-07T06:20:23.382Z,3.68
2023-03-07T06:22:53.038Z,3.75
2023-03-07T06:25:21.181Z,3.80
2023-03-07T06:27:49.673Z,3.84
2023-03-07T06:30:17.908Z,3.86
2023-03-07T06:32:46.033Z,3.84
2023-03-07T06:35:13.708Z,3.81
2023-03-07T06:37:41.980Z,3.81
2023-03-07T06:40:12.085Z,3.79
2023-03-07T06:42:39.899Z,3.78
2023-03-07T06:45:09.472Z,3.81
2023-03-07T06:47:37.391Z,3.81
2023-03-07T06:50:07.634Z,3.79
2023-03-07T06:52:35.541Z,3.79
2023-03-07T06:55:03.831Z,3.78
2023-03-07T06:57:33.857Z,3.76
2023-03-07T07:00:07.635Z,3.72
2023-03-07T07:02:36.287Z,3.70
2023-03-07T07:05:06.248Z,3.68
2023-03-07T07:07:33.856Z,3.70
2023-03-07T07:10:01.558Z,3.73
2023-03-07T07:12:30.320Z,3.76
2023-03-07T07:14:59.775Z,3.77
2023-03-07T07:17:30.520Z,3.79
2023-03-07T07:19:58.374Z,3.82
2023-03-07T07:22:26.643Z,3.84
2023-03-07T07:24:54.251Z,3.82
2023-03-07T07:27:22.149Z,3.82
2023-03-07T07:29:50.022Z,3.82
2023-03-07T07:32:17.794Z,3.84
2023-03-07T07:34:45.484Z,3.83
2023-03-07T07:37:13.338Z,3.81
2023-03-07T07:39:42.841Z,3.81
2023-03-07T07:42:11.723Z,3.79
2023-03-07T07:44:41.125Z,3.76
2023-03-07T07:47:10.899Z,3.75
2023-03-07T07:49:38.535Z,3.75
2023-03-07T07:52:06.754Z,3.76
2023-03-07T07:54:34.642Z,3.79
2023-03-07T07:57:03.120Z,3.84
2023-03-07T07:59:32.556Z,3.89
2023-03-07T08:02:01.597Z,3.98
2023-03-07T08:04:29.531Z,4.08
2023-03-07T08:06:57.049Z,4.19
2023-03-07T08:09:24.680Z,4.30
2023-03-07T08:11:52.418Z,4.38
2023-03-07T08:14:20.229Z,4.50
2023-03-07T08:16:47.779Z,4.57
2023-03-07T08:19:15.397Z,4.65
2023-03-07T08:21:43.111Z,4.71
2023-03-07T08:24:10.784Z,4.77
2023-03-07T08:26:38.511Z,4.80
2023-03-07T08:29:09.402Z,4.83
2023-03-07T08:31:36.951Z,4.84
2023-03-07T08:34:04.903Z,4.80
2023-03-07T08:36:32.928Z,4.78
2023-03-07T08:39:00.625Z,4.75
2023-03-07T08:41:28.469Z,4.69
2023-03-07T08:43:56.375Z,4.62
2023-03-07T08:46:24.060Z,4.54
2023-03-07T08:48:51.725Z,4.47
2023-03-07T08:51:19.548Z,4.41
2023-03-07T08:53:47.747Z,4.38
2023-03-07T08:56:18.458Z,4.33
2023-03-07T08:58:46.112Z,4.32
2023-03-07T09:01:14.214Z,4.27
2023-03-07T09:03:42.884Z,4.22
2023-03-07T09:06:17.801Z,4.19
2023-03-07T09:08:47.009Z,4.19
2023-03-07T09:11:16.185Z,4.17
2023-03-07T09:13:51.842Z,4.19
2023-03-07T09:16:13.910Z,4.21
2023-03-07T09:18:41.533Z,4.21
2023-03-07T09:21:08.997Z,4.21
2023-03-07T09:23:36.314Z,4.22
2023-03-07T09:26:05.417Z,4.24
2023-03-07T09:28:33.093Z,4.25
2023-03-07T09:31:08.975Z,4.28
2023-03-07T09:33:36.687Z,4.30
2023-03-07T09:36:10.580Z,4.38
2023-03-07T09:38:39.152Z,4.44
2023-03-07T09:41:24.310Z,4.52
2023-03-07T09:44:12.481Z,4.62
2023-03-07T09:46:49.948Z,4.75
2023-03-07T09:49:21.354Z,4.92
2023-03-07T09:51:52.262Z,5.07
2023-03-07T09:54:28.181Z,5.21
2023-03-07T09:56:59.737Z,5.35
2023-03-07T09:59:45.024Z,5.47
2023-03-07T10:05:42.931Z,5.65
2023-03-07T10:08:21.728Z,5.62
2023-03-07T10:11:10.253Z,5.62
2023-03-07T10:13:55.221Z,5.67
2023-03-07T10:16:36.477Z,5.69
2023-03-07T10:19:31.951Z,5.75
2023-03-07T10:22:27.224Z,5.79
2023-03-07T10:25:29.593Z,5.85
2023-03-07T10:28:23.561Z,5.87
2023-03-07T10:30:55.784Z,5.85
2023-03-07T10:33:24.585Z,5.88
2023-03-07T10:36:00.525Z,5.92
2023-03-07T10:38:49.932Z,5.98
2023-03-07T10:41:21.447Z,6.05
2023-03-07T10:43:52.149Z,6.15
2023-03-07T10:46:31.187Z,6.24
2023-03-07T10:49:29.681Z,6.32
2023-03-07T10:52:32.795Z,6.44
2023-03-07T10:55:33.795Z,6.59
2023-03-07T10:58:26.239Z,6.63
2023-03-07T11:01:05.289Z,6.54
2023-03-07T11:03:55.920Z,6.49
2023-03-07T11:06:36.562Z,6.46
2023-03-07T11:09:23.862Z,6.52
2023-03-07T11:11:58.622Z,6.60
2023-03-07T11:14:28.926Z,6.66
2023-03-07T11:17:02.006Z,6.75
2023-03-07T11:19:39.985Z,6.90
2023-03-07T11:22:32.120Z,6.92
2023-03-07T11:25:05.225Z,6.98
2023-03-07T11:27:46.534Z,7.10
2023-03-07T11:30:37.625Z,7.20
2023-03-07T11:33:17.878Z,7.30
2023-03-07T11:36:16.980Z,7.36
2023-03-07T11:39:02.438Z,7.38
2023-03-07T11:41:37.181Z,7.42
2023-03-07T11:44:40.930Z,7.47
2023-03-07T11:47:22.850Z,7.47
2023-03-07T11:50:22.362Z,7.47
2023-03-07T11:53:22.839Z,7.49
2023-03-07T11:56:18.591Z,7.52
2023-03-07T11:59:16.485Z,7.51
2023-03-07T12:01:58.671Z,7.53
2023-03-07T12:04:40.777Z,7.49
2023-03-07T12:07:50.570Z,7.48
2023-03-07T12:10:55.783Z,7.48
2023-03-07T12:13:46.218Z,7.52
2023-03-07T12:16:27.381Z,7.59
2023-03-07T12:19:32.756Z,7.65
2023-03-07T12:22:11.475Z,7.69
2023-03-07T12:24:59.998Z,7.73
2023-03-07T12:27:38.576Z,7.76
2023-03-07T12:30:26.335Z,7.81
2023-03-07T12:32:54.961Z,7.84
2023-03-07T12:35:33.964Z,7.87
2023-03-07T12:38:09.623Z,7.90
2023-03-07T12:40:41.870Z,7.92
2023-03-07T12:43:37.054Z,7.94
2023-03-07T12:46:15.768Z,7.98
2023-03-07T12:48:57.980Z,8.00
2023-03-07T12:51:51.804Z,8.03
2023-03-07T12:54:36.784Z,8.00
2023-03-07T12:57:12.870Z,8.03
2023-03-07T12:59:43.169Z,8.02
2023-03-07T13:02:25.092Z,8.01
2023-03-07T13:04:53.189Z,7.97
2023-03-07T13:07:33.147Z,8.00
2023-03-07T13:10:05.286Z,8.02
2023-03-07T13:12:37.332Z,8.05
2023-03-07T13:15:22.599Z,8.13
2023-03-07T13:17:54.657Z,8.23
2023-03-07T13:20:38.751Z,8.27
2023-03-07T13:23:23.902Z,8.32
2023-03-07T13:26:01.639Z,8.39
2023-03-07T13:28:44.677Z,8.37
2023-03-07T13:31:27.085Z,8.38
2023-03-07T13:33:54.915Z,8.39
2023-03-07T13:36:39.320Z,8.42
2023-03-07T13:39:37.033Z,8.44
2023-03-07T13:42:04.846Z,8.42
2023-03-07T13:44:39.571Z,8.39
2023-03-07T13:47:40.993Z,8.39
2023-03-07T13:50:52.003Z,8.41
2023-03-07T13:53:43.151Z,8.42
2023-03-07T13:56:21.057Z,8.50
2023-03-07T13:59:15.151Z,8.53
2023-03-07T14:01:50.297Z,8.56
2023-03-07T14:04:38.788Z,8.63
2023-03-07T14:07:16.136Z,8.72
2023-03-07T14:09:48.309Z,8.74
2023-03-07T14:12:33.822Z,8.77
2023-03-07T14:15:24.758Z,8.82
2023-03-07T14:18:00.915Z,8.89
2023-03-07T14:20:55.405Z,8.92
2023-03-07T14:24:06.808Z,8.92
2023-03-07T14:26:44.805Z,8.79
2023-03-07T14:29:21.651Z,8.66
2023-03-07T14:31:53.021Z,8.59
2023-03-07T14:34:31.092Z,8.54
2023-03-07T14:37:09.677Z,8.50
2023-03-07T14:40:03.697Z,8.44
2023-03-07T14:42:59.182Z,8.40
2023-03-07T14:45:50.285Z,8.33
2023-03-07T14:48:44.071Z,8.27
2023-03-07T14:51:19.999Z,8.20
2023-03-07T14:53:49.233Z,8.17
2023-03-07T14:56:26.718Z,8.13
2023-03-07T14:58:58.280Z,8.04
2023-03-07T15:01:35.784Z,7.97
2023-03-07T15:04:11.015Z,7.90
2023-03-07T15:06:43.882Z,7.86
2023-03-07T15:09:11.782Z,7.79
2023-03-07T15:11:53.705Z,7.76
2023-03-07T15:14:49.394Z,7.73
2023-03-07T15:17:21.486Z,7.70
2023-03-07T15:20:00.100Z,7.66
2023-03-07T15:22:31.817Z,7.59
2023-03-07T15:24:59.552Z,7.55
2023-03-07T15:27:30.859Z,7.54
2023-03-07T15:30:01.492Z,7.52
2023-03-07T15:32:40.864Z,7.50
2023-03-07T15:35:14.175Z,7.49
2023-03-07T15:37:57.765Z,7.49
2023-03-07T15:40:36.434Z,7.51
2023-03-07T15:43:18.891Z,7.51
2023-03-07T15:46:10.499Z,7.54
2023-03-07T15:48:43.815Z,7.56
2023-03-07T15:51:19.656Z,7.56
2023-03-07T15:54:00.926Z,7.55
2023-03-07T15:56:40.027Z,7.55
2023-03-07T15:59:31.090Z,7.54
2023-03-07T16:02:27.384Z,7.53
2023-03-07T16:04:55.177Z,7.51
2023-03-07T16:07:22.859Z,7.48
2023-03-07T16:09:50.697Z,7.41
2023-03-07T16:12:21.995Z,7.36
2023-03-07T16:14:52.167Z,7.32
2023-03-07T16:17:38.878Z,7.30
2023-03-07T16:20:16.116Z,7.28
2023-03-07T16:22:44.562Z,7.24
2023-03-07T16:25:12.601Z,7.24
2023-03-07T16:27:40.657Z,7.22
2023-03-07T16:30:15.737Z,7.19
2023-03-07T16:32:43.874Z,7.18
2023-03-07T16:35:23.472Z,7.18
2023-03-07T16:37:52.231Z,7.17
2023-03-07T16:40:20.756Z,7.16
2023-03-07T16:42:50.323Z,7.13
2023-03-07T16:45:29.570Z,7.10
2023-03-07T16:48:00.036Z,7.08
2023-03-07T16:50:33.027Z,7.04
2023-03-07T16:53:00.740Z,7.05
2023-03-07T16:55:28.808Z,7.04
2023-03-07T16:58:00.516Z,7.03
2023-03-07T17:00:28.754Z,7.03
2023-03-07T17:03:02.546Z,7.01
2023-03-07T17:05:30.372Z,7.01
2023-03-07T17:07:59.029Z,7.02
2023-03-07T17:10:28.394Z,7.02
2023-03-07T17:13:01.782Z,6.99
2023-03-07T17:15:32.716Z,6.98
2023-03-07T17:18:01.120Z,6.98
2023-03-07T17:20:29.792Z,7.01
2023-03-07T17:22:57.989Z,7.04
2023-03-07T17:25:27.404Z,7.10
2023-03-07T17:28:12.451Z,7.12
2023-03-07T17:30:41.909Z,7.15
2023-03-07T17:33:11.141Z,7.18
2023-03-07T17:35:39.102Z,7.20
2023-03-07T17:38:07.123Z,7.20
2023-03-07T17:40:34.941Z,7.18
2023-03-07T17:43:03.420Z,7.17
2023-03-07T17:45:31.040Z,7.14
2023-03-07T17:47:58.603Z,7.13
2023-03-07T17:50:26.382Z,7.11
2023-03-07T17:52:55.191Z,7.10
2023-03-07T17:55:26.649Z,7.08
2023-03-07T17:57:54.177Z,7.06
2023-03-07T18:00:23.152Z,7.05
2023-03-07T18:02:51.506Z,7.05
2023-03-07T18:05:19.473Z,7.03
2023-03-07T18:07:48.930Z,7.02
2023-03-07T18:10:17.540Z,7.01
2023-03-07T18:12:45.768Z,6.99
2023-03-07T18:15:16.750Z,6.98
2023-03-07T18:17:48.877Z,6.97
2023-03-07T18:20:16.653Z,6.94
2023-03-07T18:22:44.511Z,6.94
2023-03-07T18:25:14.939Z,6.93
2023-03-07T18:27:44.212Z,6.91
2023-03-07T18:30:13.564Z,6.91
2023-03-07T18:32:41.184Z,6.89
2023-03-07T18:35:10.168Z,6.86
2023-03-07T18:37:38.496Z,6.83
2023-03-07T18:40:08.165Z,6.80
2023-03-07T18:42:36.078Z,6.76
2023-03-07T18:45:04.545Z,6.73
2023-03-07T18:47:32.206Z,6.71
2023-03-07T18:49:59.805Z,6.68
2023-03-07T18:52:27.500Z,6.66
2023-03-07T18:54:55.008Z,6.67
2023-03-07T18:57:22.888Z,6.66
2023-03-07T18:59:50.697Z,6.65
2023-03-07T19:02:18.650Z,6.61
2023-03-07T19:04:46.477Z,6.61
2023-03-07T19:07:14.163Z,6.64
2023-03-07T19:09:44.292Z,6.63
2023-03-07T19:12:11.250Z,6.66
2023-03-07T19:14:39.292Z,6.68
2023-03-07T19:17:06.889Z,6.71
2023-03-07T19:19:36.142Z,6.76
2023-03-07T19:22:07.350Z,6.82
2023-03-07T19:24:35.228Z,6.88
2023-03-07T19:27:02.896Z,6.92
2023-03-07T19:29:30.712Z,6.94
2023-03-07T19:31:58.366Z,6.93
2023-03-07T19:34:26.210Z,6.89
2023-03-07T19:36:53.813Z,6.88
2023-03-07T19:39:21.327Z,6.83
2023-03-07T19:41:49.187Z,6.80
2023-03-07T19:44:17.305Z,6.75
2023-03-07T19:46:47.689Z,6.70
2023-03-07T19:49:16.960Z,6.63
2023-03-07T19:51:44.707Z,6.54
2023-03-07T19:54:15.943Z,6.43
2023-03-07T19:56:45.195Z,6.31
2023-03-07T19:59:13.820Z,6.22
2023-03-07T20:01:41.532Z,6.15
2023-03-07T20:04:12.190Z,6.12
2023-03-07T20:06:41.961Z,6.09
2023-03-07T20:09:12.452Z,6.05
2023-03-07T20:11:44.695Z,6.04
2023-03-07T20:14:12.904Z,6.03
2023-03-07T20:16:41.417Z,6.03
2023-03-07T20:19:09.945Z,6.01
2023-03-07T20:21:38.272Z,6.00
2023-03-07T20:24:08.069Z,6.01
2023-03-07T20:26:38.699Z,5.98
2023-03-07T20:29:08.773Z,5.97
2023-03-07T20:31:38.742Z,5.96
2023-03-07T20:34:06.973Z,5.94
2023-03-07T20:36:37.331Z,5.97
2023-03-07T20:39:09.558Z,6.02
2023-03-07T20:41:37.507Z,6.04
2023-03-07T20:44:08.117Z,6.07
2023-03-07T20:46:38.049Z,6.10
2023-03-07T20:49:06.139Z,6.13
2023-03-07T20:51:36.113Z,6.18
2023-03-07T20:54:08.021Z,6.20
2023-03-07T20:56:38.263Z,6.24
2023-03-07T20:59:07.551Z,6.24
2023-03-07T21:01:36.136Z,6.21
2023-03-07T21:04:09.982Z,6.17
2023-03-07T21:06:40.169Z,6.13
2023-03-07T21:09:09.945Z,6.06
2023-03-07T21:12:01.729Z,5.99
2023-03-07T21:14:29.736Z,5.91
2023-03-07T21:16:57.551Z,5.84
2023-03-07T21:19:25.311Z,5.77
2023-03-07T21:21:53.197Z,5.71
2023-03-07T21:24:21.028Z,5.65
2023-03-07T21:26:48.774Z,5.55
2023-03-07T21:29:16.515Z,5.48
2023-03-07T21:31:44.367Z,5.39
2023-03-07T21:34:14.548Z,5.26
2023-03-07T21:36:42.700Z,5.20
2023-03-07T21:39:11.165Z,5.17
2023-03-07T21:41:39.066Z,5.12
2023-03-07T21:44:07.551Z,5.06
2023-03-07T21:46:35.239Z,5.00
2023-03-07T21:49:02.762Z,4.95
2023-03-07T21:51:30.450Z,4.94
2023-03-07T21:53:58.385Z,4.92
2023-03-07T21:56:26.321Z,4.88
2023-03-07T21:58:54.949Z,4.83
2023-03-07T22:01:28.316Z,4.79
2023-03-07T22:03:58.556Z,4.75
2023-03-07T22:06:27.964Z,4.71
2023-03-07T22:08:55.749Z,4.68
2023-03-07T22:11:23.369Z,4.67
2023-03-07T22:13:51.044Z,4.66
2023-03-07T22:16:21.079Z,4.66
2023-03-07T22:18:53.798Z,4.66
2023-03-07T22:21:23.438Z,4.66
2023-03-07T22:23:54.420Z,4.73
2023-03-07T22:26:22.018Z,4.76
2023-03-07T22:28:51.000Z,4.79
2023-03-07T22:31:18.826Z,4.84
2023-03-07T22:33:46.759Z,4.88
2023-03-07T22:36:14.808Z,4.95
2023-03-07T22:38:43.327Z,4.99
2023-03-07T22:41:16.941Z,5.03
2023-03-07T22:43:44.814Z,5.06
2023-03-07T22:46:13.112Z,5.06
2023-03-07T22:48:40.839Z,5.08
2023-03-07T22:51:17.186Z,5.13
2023-03-07T22:53:45.390Z,5.14
2023-03-07T22:56:25.370Z,5.16
2023-03-07T22:58:53.916Z,5.19
2023-03-07T23:01:24.740Z,5.21
2023-03-07T23:03:53.981Z,5.21
2023-03-07T23:06:23.367Z,5.21
2023-03-07T23:08:53.185Z,5.20
2023-03-07T23:11:22.977Z,5.18
2023-03-07T23:13:51.110Z,5.17
2023-03-07T23:16:22.474Z,5.15
2023-03-07T23:18:52.217Z,5.12
2023-03-07T23:21:23.765Z,5.10
2023-03-07T23:23:55.361Z,5.08
2023-03-07T23:26:30.773Z,5.08
2023-03-07T23:29:00.550Z,5.08
2023-03-07T23:31:35.132Z,5.06
2023-03-07T23:34:06.997Z,5.04
2023-03-07T23:36:35.255Z,5.02
2023-03-07T23:39:03.447Z,5.02
2023-03-07T23:41:31.043Z,5.00
2023-03-07T23:44:00.602Z,5.00
2023-03-07T23:46:30.067Z,5.00
2023-03-07T23:48:57.880Z,4.99
2023-03-07T23:51:25.713Z,5.01
2023-03-07T23:53:53.385Z,5.05
2023-03-07T23:56:22.226Z,5.08
2023-03-07T23:58:51.598Z,5.13
